Time;durP1;ratioP1;P1;durP2;ratioP2;P2;SDS_P1;SDS_P2;PMS_P1;PMS_P2;Temp;Humidity;BMP_temperature;BMP_pressure;BME280_temperature;BME280_humidity;BME280_pressure;Samples;Min_cycle;Max_cycle;Signal;HPM_P1;HPM_P2
2023/10/24 00:01:34;;;;;;;1.58;1.48;;;;;;;3.58;72.85;98740.75;5114595;28;20031;-61
2023/10/24 00:04:00;;;;;;;1.23;1.13;;;;;;;3.83;71.96;98770.81;5114391;28;20034;-61
2023/10/24 00:06:25;;;;;;;1.83;1.70;;;;;;;3.64;72.42;98749.22;5114725;28;20027;-60
2023/10/24 00:08:51;;;;;;;2.05;1.90;;;;;;;3.83;71.74;98776.09;5112343;28;20112;-61
2023/10/24 00:11:17;;;;;;;1.92;1.70;;;;;;;3.79;71.67;98776.44;5113846;28;20055;-62
2023/10/24 00:13:42;;;;;;;1.70;1.60;;;;;;;3.79;72.38;98779.09;5114492;28;20075;-61
2023/10/24 00:16:07;;;;;;;1.65;1.55;;;;;;;3.80;71.94;98781.63;5096307;28;20431;-62
2023/10/24 00:18:33;;;;;;;1.73;1.63;;;;;;;3.83;72.28;98784.03;5114275;28;20092;-60
2023/10/24 00:20:59;;;;;;;1.88;1.77;;;;;;;3.66;71.92;98749.97;5113967;28;20088;-61
2023/10/24 00:23:24;;;;;;;1.75;1.63;;;;;;;3.83;71.79;98775.28;5114234;28;20161;-60
2023/10/24 00:25:51;;;;;;;2.70;1.90;;;;;;;3.84;71.89;98787.56;5113343;28;20031;-61
2023/10/24 00:28:16;;;;;;;1.85;1.75;;;;;;;3.84;72.47;98788.38;5113168;28;20507;-62
2023/10/24 00:30:42;;;;;;;1.90;1.80;;;;;;;3.88;71.60;98796.97;5114175;28;20043;-62
2023/10/24 00:33:07;;;;;;;2.90;1.75;;;;;;;3.91;72.08;98798.56;5113012;28;20031;-61
2023/10/24 00:35:34;;;;;;;3.47;2.00;;;;;;;3.88;71.82;98800.47;5114270;28;20028;-61
2023/10/24 00:37:59;;;;;;;2.40;2.20;;;;;;;3.87;71.88;98801.44;5113984;28;20085;-61
2023/10/24 00:40:25;;;;;;;2.67;2.13;;;;;;;3.81;71.72;98790.41;5113765;28;20036;-60
2023/10/24 00:42:51;;;;;;;2.45;2.20;;;;;;;3.81;71.69;98796.53;5114047;28;20028;-60
2023/10/24 00:45:17;;;;;;;3.28;2.55;;;;;;;3.74;72.22;98787.34;5113966;28;20032;-59
2023/10/24 00:47:44;;;;;;;2.83;2.60;;;;;;;3.81;71.90;98801.84;5114107;28;20373;-60
2023/10/24 00:50:10;;;;;;;2.65;2.45;;;;;;;3.78;72.17;98786.16;5113481;28;20028;-62
2023/10/24 00:52:37;;;;;;;3.08;2.78;;;;;;;3.84;72.22;98792.84;5113582;28;20042;-60
2023/10/24 00:55:05;;;;;;;3.50;3.20;;;;;;;3.90;71.70;98812.78;5113637;28;20091;-61
2023/10/24 00:57:31;;;;;;;3.80;3.20;;;;;;;3.85;71.96;98799.84;5113735;28;20114;-61
2023/10/24 00:59:57;;;;;;;3.90;3.25;;;;;;;3.85;72.20;98808.63;5112370;28;20165;-61
2023/10/24 01:02:23;;;;;;;3.33;3.03;;;;;;;3.68;71.76;98780.66;5112624;28;20039;-58
2023/10/24 01:04:53;;;;;;;3.30;3.00;;;;;;;3.85;71.95;98811.25;5113801;28;20406;-60
2023/10/24 01:07:19;;;;;;;3.70;3.22;;;;;;;3.90;71.58;98821.53;5112354;28;20118;-59
2023/10/24 01:09:45;;;;;;;3.83;3.50;;;;;;;3.90;71.96;98826.00;5113624;28;20042;-63
2023/10/24 01:12:10;;;;;;;4.63;3.15;;;;;;;3.94;72.43;98828.31;5112184;28;20028;-61
2023/10/24 01:14:36;;;;;;;3.80;3.20;;;;;;;3.98;72.21;98831.63;5113452;28;20350;-60
2023/10/24 01:17:12;;;;;;;4.20;3.15;;;;;;;4.07;71.91;98838.91;5113245;28;20107;-60
2023/10/24 01:19:38;;;;;;;3.97;3.05;;;;;;;3.93;72.20;98816.03;5113198;28;20039;-61
2023/10/24 01:22:03;;;;;;;3.35;3.05;;;;;;;4.00;72.27;98832.34;5113166;28;20036;-59
2023/10/24 01:24:29;;;;;;;3.28;2.97;;;;;;;3.91;71.84;98817.13;5113486;28;20047;-60
2023/10/24 01:26:56;;;;;;;3.33;3.03;;;;;;;3.78;72.09;98791.47;5111956;28;20458;-61
2023/10/24 01:29:22;;;;;;;3.30;3.00;;;;;;;4.08;71.88;98837.13;5113565;28;20115;-61
2023/10/24 01:31:47;;;;;;;4.05;3.30;;;;;;;4.10;71.80;98844.03;5113309;28;20066;-60
2023/10/24 01:34:13;;;;;;;3.75;3.25;;;;;;;4.10;71.94;98851.97;5113161;28;20497;-61
2023/10/24 01:36:39;;;;;;;3.55;3.10;;;;;;;4.09;71.52;98837.00;5113199;28;20086;-60
2023/10/24 01:39:04;;;;;;;4.00;3.60;;;;;;;4.14;71.59;98850.78;5113301;28;20458;-62
2023/10/24 01:41:30;;;;;;;4.18;3.15;;;;;;;4.18;71.74;98848.75;5112996;28;20039;-61
2023/10/24 01:43:57;;;;;;;5.18;3.70;;;;;;;4.18;71.36;98850.56;5112998;28;20038;-61
2023/10/24 01:46:23;;;;;;;5.43;3.40;;;;;;;3.90;71.61;98808.31;5112402;28;20028;-59
2023/10/24 01:48:49;;;;;;;4.25;3.65;;;;;;;4.15;71.54;98849.84;5113243;28;20092;-63
2023/10/24 01:51:14;;;;;;;4.05;3.53;;;;;;;4.15;71.47;98855.13;5113326;28;20031;-61
2023/10/24 01:53:40;;;;;;;4.10;3.63;;;;;;;4.17;71.38;98852.34;5113220;28;20023;-59
2023/10/24 01:56:05;;;;;;;6.78;4.20;;;;;;;4.10;71.31;98859.91;5111814;28;20441;-62
2023/10/24 01:58:31;;;;;;;4.50;3.55;;;;;;;4.06;71.75;98858.41;5112892;28;20038;-61
2023/10/24 02:00:56;;;;;;;6.25;4.20;;;;;;;3.98;71.61;98844.84;5113098;28;20069;-60
2023/10/24 02:03:21;;;;;;;5.25;3.83;;;;;;;4.06;71.78;98858.41;5112988;28;20028;-62
2023/10/24 02:05:47;;;;;;;4.32;3.85;;;;;;;4.10;71.79;98867.00;5113030;28;20024;-60
2023/10/24 02:08:12;;;;;;;6.47;4.07;;;;;;;4.05;72.16;98861.19;5112381;28;20173;-61
2023/10/24 02:10:38;;;;;;;5.53;4.47;;;;;;;4.10;71.91;98856.41;5113176;28;20057;-61
2023/10/24 02:13:04;;;;;;;5.35;4.25;;;;;;;4.13;71.95;98875.59;5112569;28;20036;-61
2023/10/24 02:15:30;;;;;;;5.70;4.07;;;;;;;4.14;72.01;98882.59;5111760;28;20035;-59
2023/10/24 02:17:55;;;;;;;6.25;4.40;;;;;;;4.15;72.13;98888.72;5112763;28;20039;-61
2023/10/24 02:20:21;;;;;;;6.38;4.60;;;;;;;4.24;72.12;98884.59;5113018;28;20460;-61
2023/10/24 02:22:49;;;;;;;6.78;4.68;;;;;;;4.15;71.77;98881.63;5113130;28;20035;-59
2023/10/24 02:25:14;;;;;;;6.28;4.63;;;;;;;4.05;71.55;98856.72;5111584;28;20143;-60
2023/10/24 02:27:40;;;;;;;8.70;5.22;;;;;;;4.28;71.81;98889.56;5112736;28;20044;-59
2023/10/24 02:30:06;;;;;;;7.10;5.25;;;;;;;4.30;71.52;98902.69;5112881;28;20147;-61
2023/10/24 02:32:32;;;;;;;6.85;5.43;;;;;;;4.30;71.58;98895.59;5114795;28;20039;-60
2023/10/24 02:34:57;;;;;;;7.05;5.00;;;;;;;4.29;71.97;98890.41;5116133;28;20407;-61
2023/10/24 02:37:23;;;;;;;7.88;5.20;;;;;;;4.31;71.63;98899.09;5115362;28;20027;-59
2023/10/24 02:39:49;;;;;;;9.38;5.65;;;;;;;4.32;72.17;98895.47;5116973;28;20498;-61
2023/10/24 02:42:14;;;;;;;7.93;5.75;;;;;;;4.28;72.15;98900.16;5116331;28;20035;-61
2023/10/24 02:44:40;;;;;;;8.60;5.75;;;;;;;4.33;72.02;98899.00;5116141;28;20100;-61
2023/10/24 02:47:05;;;;;;;8.73;6.20;;;;;;;4.28;72.31;98894.00;5115908;28;20111;-61
2023/10/24 02:49:32;;;;;;;9.25;5.65;;;;;;;3.97;72.14;98861.69;5116429;27;20046;-60
2023/10/24 02:51:58;;;;;;;9.30;5.85;;;;;;;4.26;72.62;98917.97;5115094;28;20384;-61
2023/10/24 02:54:23;;;;;;;8.07;5.85;;;;;;;4.23;71.80;98915.53;5114998;28;20088;-61
2023/10/24 02:56:49;;;;;;;10.63;5.95;;;;;;;4.15;72.02;98908.13;5116185;28;20106;-60
2023/10/24 02:59:16;;;;;;;10.45;6.47;;;;;;;3.98;72.72;98874.00;5116005;28;20336;-60
2023/10/24 03:01:42;;;;;;;10.05;6.07;;;;;;;4.22;72.33;98916.50;5116151;28;20024;-59
2023/10/24 03:04:07;;;;;;;11.57;6.38;;;;;;;4.25;72.58;98926.03;5115828;28;20039;-60
2023/10/24 03:06:33;;;;;;;11.10;6.18;;;;;;;4.19;72.67;98919.34;5115902;28;20034;-60
2023/10/24 03:08:58;;;;;;;9.95;6.40;;;;;;;4.17;72.90;98913.28;5115736;28;20019;-62
2023/10/24 03:11:24;;;;;;;11.38;6.82;;;;;;;4.23;73.05;98926.16;5115993;28;20041;-62
2023/10/24 03:13:53;;;;;;;12.25;7.03;;;;;;;4.07;72.74;98886.59;5115626;27;20041;-61
2023/10/24 03:16:18;;;;;;;10.02;6.97;;;;;;;4.28;72.38;98926.66;5114476;28;20378;-60
2023/10/24 03:18:43;;;;;;;12.75;7.72;;;;;;;4.24;72.56;98924.31;5115629;28;20039;-60
2023/10/24 03:21:09;;;;;;;12.63;8.15;;;;;;;4.15;72.45;98905.47;5115321;28;20028;-61
2023/10/24 03:23:36;;;;;;;11.68;8.13;;;;;;;4.17;72.23;98923.91;5115330;28;20069;-60
2023/10/24 03:26:17;;;;;;;14.32;9.52;;;;;;;4.13;72.56;98928.56;5081512;28;20051;-61
2023/10/24 03:28:44;;;;;;;13.90;9.93;;;;;;;4.11;71.94;98933.13;5115259;28;20063;-60
2023/10/24 03:31:10;;;;;;;13.10;9.93;;;;;;;4.09;72.51;98935.00;5114288;28;20043;-60
2023/10/24 03:33:36;;;;;;;17.23;10.68;;;;;;;3.83;72.73;98897.91;5115356;28;20316;-61
2023/10/24 03:36:01;;;;;;;12.40;9.93;;;;;;;4.09;72.24;98950.91;5113995;28;20027;-61
2023/10/24 03:38:27;;;;;;;16.38;10.52;;;;;;;3.88;72.08;98919.66;5115098;28;20043;-61
2023/10/24 03:40:54;;;;;;;15.10;10.60;;;;;;;3.97;71.60;98935.84;5114607;28;20066;-62
2023/10/24 03:43:20;;;;;;;16.33;11.00;;;;;;;3.86;71.19;98916.25;5114828;28;20323;-61
2023/10/24 03:45:46;;;;;;;17.52;10.60;;;;;;;4.03;71.33;98956.63;5114959;28;20034;-61
2023/10/24 03:48:12;;;;;;;15.60;10.48;;;;;;;4.04;71.34;98965.44;5114961;28;20032;-60
2023/10/24 03:50:39;;;;;;;14.80;10.25;;;;;;;4.02;71.04;98976.13;5115009;28;20031;-60
2023/10/24 03:53:05;;;;;;;17.95;11.02;;;;;;;4.00;71.46;98975.38;5113427;28;20104;-62
2023/10/24 03:55:32;;;;;;;14.52;10.40;;;;;;;4.00;70.97;98970.06;5114900;28;20032;-60
2023/10/24 03:57:58;;;;;;;15.32;10.10;;;;;;;3.98;70.96;98971.97;5114907;28;20028;-62
2023/10/24 04:00:24;;;;;;;15.13;10.27;;;;;;;3.99;70.90;98978.97;5113626;28;20427;-61
2023/10/24 04:02:56;;;;;;;14.65;9.88;;;;;;;4.04;70.42;98997.22;5114359;28;20042;-61
2023/10/24 04:05:22;;;;;;;13.57;9.80;;;;;;;4.00;70.24;98988.63;5114703;28;20031;-58
2023/10/24 04:07:48;;;;;;;12.95;9.73;;;;;;;3.92;70.19;98985.66;5114680;28;20024;-60
2023/10/24 04:10:15;;;;;;;14.68;9.50;;;;;;;3.97;70.20;98994.13;5114196;28;20072;-61
2023/10/24 04:12:41;;;;;;;15.50;10.23;;;;;;;3.96;70.21;98997.72;5114195;28;20027;-61
2023/10/24 04:15:08;;;;;;;13.77;10.02;;;;;;;3.70;69.85;98965.88;5114462;28;20445;-61
2023/10/24 04:17:34;;;;;;;14.13;9.77;;;;;;;3.95;70.03;99003.97;5114732;28;20350;-62
2023/10/24 04:19:59;;;;;;;14.15;10.35;;;;;;;3.88;70.15;98990.28;5113817;28;20095;-62
2023/10/24 04:22:25;;;;;;;15.77;10.70;;;;;;;4.02;69.79;99023.78;5114078;28;20035;-62
2023/10/24 04:24:51;;;;;;;15.20;10.23;;;;;;;3.99;69.67;99010.75;5114470;28;20463;-61
2023/10/24 04:27:17;;;;;;;15.13;10.15;;;;;;;4.05;69.40;99023.59;5114146;28;20042;-63
2023/10/24 04:29:43;;;;;;;14.57;10.00;;;;;;;4.08;69.88;99028.69;5113160;28;20170;-61
2023/10/24 04:32:08;;;;;;;13.07;10.80;;;;;;;4.13;69.16;99037.19;5113692;28;20103;-61
2023/10/24 04:34:34;;;;;;;13.20;10.20;;;;;;;3.94;69.14;99004.94;5114106;28;20035;-62
2023/10/24 04:37:01;;;;;;;15.02;10.65;;;;;;;4.18;68.91;99044.81;5112940;28;20102;-61
2023/10/24 04:39:26;;;;;;;13.02;10.50;;;;;;;3.85;69.07;99006.38;5113575;28;20454;-62
2023/10/24 04:41:52;;;;;;;15.00;10.13;;;;;;;4.11;68.72;99057.66;5113418;28;20133;-61
2023/10/24 04:44:17;;;;;;;13.70;10.35;;;;;;;4.10;69.60;99053.28;5113904;27;20107;-62
2023/10/24 04:46:44;;;;;;;13.95;10.38;;;;;;;3.96;69.74;99034.81;5114034;28;20121;-61
2023/10/24 04:49:09;;;;;;;13.70;10.77;;;;;;;4.15;69.30;99064.44;5112697;28;20070;-56
2023/10/24 04:51:35;;;;;;;16.55;11.18;;;;;;;4.15;69.38;99055.63;5113521;28;20117;-59
2023/10/24 04:54:00;;;;;;;19.25;12.25;;;;;;;4.16;69.04;99060.81;5113599;28;20136;-62
2023/10/24 04:56:25;;;;;;;18.95;11.07;;;;;;;4.21;69.02;99075.56;5113766;28;20391;-57
2023/10/24 04:58:51;;;;;;;16.88;11.60;;;;;;;4.10;69.00;99071.84;5113701;28;20028;-59
2023/10/24 05:01:17;;;;;;;17.15;11.82;;;;;;;4.18;69.44;99086.38;5113565;28;20035;-57
2023/10/24 05:03:42;;;;;;;18.77;12.32;;;;;;;4.13;69.13;99082.22;5112611;28;20039;-58
2023/10/24 05:06:08;;;;;;;20.40;12.30;;;;;;;3.91;69.29;99047.50;5113438;28;20062;-60
2023/10/24 05:08:34;;;;;;;17.95;12.20;;;;;;;4.20;69.51;99085.31;5113273;28;20088;-57
2023/10/24 05:11:01;;;;;;;17.02;12.48;;;;;;;4.20;69.24;99092.41;5113461;28;20106;-62
2023/10/24 05:13:27;;;;;;;18.92;12.20;;;;;;;4.10;69.18;99084.22;5113410;28;20500;-61
2023/10/24 05:15:52;;;;;;;18.80;12.68;;;;;;;4.08;69.76;99084.31;5112172;28;20031;-60
2023/10/24 05:18:18;;;;;;;19.85;13.40;;;;;;;4.10;69.55;99090.38;5113157;28;20050;-60
2023/10/24 05:20:43;;;;;;;19.75;13.52;;;;;;;4.11;70.09;99091.22;5113529;28;20027;-59
2023/10/24 05:23:09;;;;;;;16.88;12.63;;;;;;;3.90;69.73;99049.28;5112576;28;20024;-58
2023/10/24 05:25:36;;;;;;;17.95;12.27;;;;;;;4.06;69.52;99083.56;5112382;28;20036;-59
2023/10/24 05:28:02;;;;;;;19.70;13.35;;;;;;;4.14;69.46;99094.53;5113339;28;20446;-64
2023/10/24 05:30:28;;;;;;;16.42;12.15;;;;;;;4.15;69.49;99103.31;5113146;28;20039;-61
2023/10/24 05:32:53;;;;;;;18.15;12.50;;;;;;;4.19;69.68;99106.63;5112997;28;20031;-59
2023/10/24 05:35:19;;;;;;;21.08;13.32;;;;;;;4.19;69.66;99109.25;5113257;28;20423;-61
2023/10/24 05:37:44;;;;;;;19.65;13.13;;;;;;;4.21;69.55;99104.72;5113187;28;20055;-61
2023/10/24 05:40:10;;;;;;;22.17;13.63;;;;;;;4.21;69.51;99105.53;5113172;28;20039;-57
2023/10/24 05:42:36;;;;;;;22.08;13.75;;;;;;;4.21;69.70;99113.50;5113171;28;20034;-58
2023/10/24 05:45:03;;;;;;;20.58;12.85;;;;;;;4.19;70.04;99126.00;5112415;28;20039;-63
2023/10/24 05:47:30;;;;;;;20.20;12.60;;;;;;;4.22;69.67;99127.59;5112091;28;20028;-61
2023/10/24 05:49:56;;;;;;;21.48;13.32;;;;;;;4.21;69.66;99116.16;5112875;28;20480;-59
2023/10/24 05:52:21;;;;;;;21.10;14.07;;;;;;;4.18;69.84;99118.16;5113088;28;20314;-61
2023/10/24 05:54:47;;;;;;;22.05;14.70;;;;;;;4.27;70.24;99117.56;5113164;28;20073;-58
2023/10/24 05:57:12;;;;;;;21.02;14.07;;;;;;;4.32;69.83;99115.44;5112538;28;20042;-61
2023/10/24 05:59:38;;;;;;;20.73;14.50;;;;;;;4.30;69.87;99120.00;5112835;28;20027;-58
2023/10/24 06:02:03;;;;;;;25.70;15.07;;;;;;;4.25;69.69;99119.44;5113086;28;20071;-62
2023/10/24 06:04:34;;;;;;;23.08;13.88;;;;;;;4.18;69.88;99118.16;5113052;28;20032;-62
2023/10/24 06:07:00;;;;;;;24.30;13.98;;;;;;;4.23;70.14;99116.91;5114163;28;20369;-60
2023/10/24 06:09:25;;;;;;;23.65;14.18;;;;;;;4.26;70.40;99123.81;5116968;28;20437;-59
2023/10/24 06:11:51;;;;;;;25.25;15.00;;;;;;;4.30;70.52;99138.53;5116973;28;20338;-61
2023/10/24 06:14:17;;;;;;;24.20;14.27;;;;;;;4.31;70.54;99124.34;5115747;28;20028;-61
2023/10/24 06:16:42;;;;;;;24.95;14.70;;;;;;;4.33;70.13;99133.03;5115442;28;20416;-61
2023/10/24 06:19:08;;;;;;;24.40;14.25;;;;;;;4.35;69.92;99130.28;5116962;28;20030;-61
2023/10/24 06:21:34;;;;;;;24.42;14.68;;;;;;;4.29;69.97;99136.84;5116939;28;20031;-61
2023/10/24 06:24:00;;;;;;;24.42;13.73;;;;;;;4.35;69.83;99136.47;5115485;28;20079;-61
2023/10/24 06:26:25;;;;;;;28.77;14.38;;;;;;;4.45;69.89;99139.31;5115063;28;20035;-60
2023/10/24 06:28:51;;;;;;;22.48;14.45;;;;;;;4.51;69.51;99144.25;5115488;28;20023;-60
2023/10/24 06:31:17;;;;;;;20.95;13.70;;;;;;;4.57;69.31;99153.56;5116368;28;20028;-60
2023/10/24 06:33:42;;;;;;;24.60;14.43;;;;;;;4.53;69.27;99154.72;5115599;28;20039;-60
2023/10/24 06:36:08;;;;;;;19.52;13.65;;;;;;;4.49;68.72;99150.59;5115083;28;20019;-61
2023/10/24 06:38:34;;;;;;;24.50;13.95;;;;;;;4.51;68.28;99146.91;5116344;28;20342;-61
2023/10/24 06:40:59;;;;;;;20.75;13.15;;;;;;;4.58;68.74;99147.31;5116434;28;20024;-59
2023/10/24 06:43:26;;;;;;;19.10;12.68;;;;;;;4.59;68.40;99154.34;5115245;28;20030;-61
2023/10/24 06:45:51;;;;;;;17.50;12.25;;;;;;;4.64;68.55;99157.53;5116164;27;20057;-59
2023/10/24 06:48:18;;;;;;;18.52;12.27;;;;;;;4.68;67.87;99164.31;5115888;28;20032;-62
2023/10/24 06:50:44;;;;;;;18.73;12.68;;;;;;;4.71;67.69;99150.03;5116545;28;20027;-61
2023/10/24 06:53:10;;;;;;;18.67;12.50;;;;;;;4.84;68.00;99174.75;5116177;28;20051;-61
2023/10/24 06:55:36;;;;;;;23.77;13.25;;;;;;;4.86;67.39;99166.69;5116432;28;20028;-60
2023/10/24 06:58:03;;;;;;;20.02;13.05;;;;;;;4.91;67.26;99175.19;5116045;28;20461;-61
2023/10/24 07:00:29;;;;;;;20.67;13.85;;;;;;;4.91;67.33;99172.53;5115710;28;20035;-61
2023/10/24 07:02:55;;;;;;;21.27;14.25;;;;;;;4.85;66.63;99160.53;5115813;28;20400;-61
2023/10/24 07:05:21;;;;;;;22.83;13.75;;;;;;;4.94;67.03;99174.97;5115678;28;20089;-59
2023/10/24 07:07:47;;;;;;;19.25;12.88;;;;;;;4.94;66.29;99168.81;5114754;28;20044;-62
2023/10/24 07:10:13;;;;;;;19.58;12.77;;;;;;;4.99;66.81;99172.84;5114748;28;20020;-61
2023/10/24 07:12:38;;;;;;;19.67;12.13;;;;;;;5.03;66.67;99176.16;5115228;28;20446;-58
2023/10/24 07:15:04;;;;;;;17.25;12.68;;;;;;;5.03;66.39;99184.94;5115877;27;20031;-60
2023/10/24 07:17:32;;;;;;;15.70;10.95;;;;;;;4.94;66.17;99159.06;5115167;28;20103;-62
2023/10/24 07:20:01;;;;;;;14.90;10.88;;;;;;;5.09;66.12;99182.88;5115235;28;20160;-59
2023/10/24 07:22:32;;;;;;;18.42;12.40;;;;;;;5.06;65.67;99183.03;5114396;28;20422;-61
2023/10/24 07:24:58;;;;;;;21.88;12.43;;;;;;;5.01;66.35;99186.88;5097300;28;20087;-61
2023/10/24 07:27:23;;;;;;;19.17;13.00;;;;;;;4.99;66.72;99186.13;5115181;28;20031;-58
2023/10/24 07:29:49;;;;;;;20.05;12.57;;;;;;;4.95;66.74;99187.28;5115549;28;20051;-59
2023/10/24 07:32:14;;;;;;;19.05;11.85;;;;;;;4.99;66.49;99191.44;5115407;28;20425;-60
2023/10/24 07:34:43;;;;;;;22.52;12.68;;;;;;;4.99;67.16;99201.22;5115247;28;20055;-61
2023/10/24 07:37:09;;;;;;;22.02;13.60;;;;;;;4.90;67.33;99207.97;5115610;28;20107;-62
2023/10/24 07:39:35;;;;;;;21.63;13.85;;;;;;;4.55;67.72;99158.13;5115467;28;20092;-60
2023/10/24 07:42:01;;;;;;;21.73;13.00;;;;;;;4.86;67.48;99209.97;5114916;28;20028;-62
2023/10/24 07:44:27;;;;;;;20.77;12.90;;;;;;;4.78;68.11;99217.59;5114916;28;20031;-59
2023/10/24 07:46:53;;;;;;;18.90;12.18;;;;;;;4.74;68.27;99214.28;5115267;28;20050;-61
2023/10/24 07:49:18;;;;;;;23.17;12.68;;;;;;;4.64;68.31;99210.56;5114000;28;20106;-64
2023/10/24 07:51:44;;;;;;;21.05;12.35;;;;;;;4.63;68.67;99219.47;5113968;28;20023;-60
2023/10/24 07:54:11;;;;;;;19.73;12.15;;;;;;;4.54;68.68;99217.41;5113782;28;20031;-62
2023/10/24 07:56:40;;;;;;;18.30;12.70;;;;;;;4.53;69.12;99231.59;5114297;28;20061;-63
2023/10/24 07:59:07;;;;;;;21.80;12.02;;;;;;;4.47;69.12;99230.22;5115145;28;20027;-59
2023/10/24 08:01:34;;;;;;;19.33;13.23;;;;;;;4.47;69.12;99232.03;5114488;28;20023;-60
2023/10/24 08:03:59;;;;;;;21.42;12.00;;;;;;;4.34;69.06;99203.66;5114657;28;20059;-62
2023/10/24 08:06:25;;;;;;;17.77;11.90;;;;;;;4.50;68.40;99239.75;5114838;28;20066;-62
2023/10/24 08:08:51;;;;;;;20.02;11.98;;;;;;;4.51;68.06;99241.47;5113705;28;20106;-61
2023/10/24 08:11:17;;;;;;;23.73;13.20;;;;;;;4.51;68.17;99238.81;5114353;28;20054;-58
2023/10/24 08:13:42;;;;;;;20.58;12.43;;;;;;;4.38;68.08;99239.63;5114250;28;20070;-60
2023/10/24 08:16:08;;;;;;;23.30;12.60;;;;;;;4.30;68.70;99241.91;5113802;28;20027;-62
2023/10/24 08:18:37;;;;;;;21.77;11.82;;;;;;;4.28;68.22;99252.63;5114399;28;20362;-62
2023/10/24 08:21:03;;;;;;;24.00;12.82;;;;;;;3.96;67.97;99218.38;5114090;27;20028;-58
2023/10/24 08:23:29;;;;;;;23.77;13.60;;;;;;;4.13;68.54;99257.09;5114090;28;20351;-59
2023/10/24 08:25:56;;;;;;;23.83;11.82;;;;;;;4.13;68.37;99256.22;5114564;28;20103;-58
2023/10/24 08:28:22;;;;;;;18.45;11.65;;;;;;;4.16;67.36;99266.63;5113562;28;20027;-62
2023/10/24 08:30:48;;;;;;;21.67;11.52;;;;;;;4.13;67.30;99273.00;5113397;28;20031;-58
2023/10/24 08:33:15;;;;;;;21.45;12.02;;;;;;;4.13;67.05;99269.47;5113807;28;20430;-59
2023/10/24 08:35:41;;;;;;;19.55;11.45;;;;;;;4.09;66.20;99279.41;5113516;28;20028;-59
2023/10/24 08:38:06;;;;;;;21.90;11.43;;;;;;;3.85;66.53;99240.25;5096079;28;20123;-60
2023/10/24 08:40:32;;;;;;;22.77;12.18;;;;;;;4.04;66.88;99286.78;5113766;28;20047;-61
2023/10/24 08:42:58;;;;;;;23.95;12.80;;;;;;;4.01;66.68;99277.25;5113705;28;20028;-61
2023/10/24 08:45:26;;;;;;;16.75;10.75;;;;;;;3.97;66.26;99286.31;5113011;28;20035;-58
2023/10/24 08:47:53;;;;;;;20.17;11.82;;;;;;;4.00;66.64;99287.94;5112700;28;20036;-59
2023/10/24 08:50:19;;;;;;;19.52;11.68;;;;;;;4.04;66.42;99286.78;5112709;28;20024;-60
2023/10/24 08:52:45;;;;;;;18.13;11.60;;;;;;;4.13;66.04;99286.22;5113418;28;20027;-60
2023/10/24 08:55:11;;;;;;;19.85;11.95;;;;;;;4.20;66.04;99291.13;5113904;28;20080;-61
2023/10/24 08:57:42;;;;;;;20.10;11.25;;;;;;;4.29;65.26;99293.19;5113490;28;20035;-60
2023/10/24 09:00:10;;;;;;;19.00;11.52;;;;;;;4.33;65.09;99296.50;5113606;28;20042;-58
2023/10/24 09:02:37;;;;;;;20.60;10.73;;;;;;;4.19;63.97;99298.22;5113437;28;20102;-60
2023/10/24 09:05:03;;;;;;;17.60;10.10;;;;;;;4.18;64.17;99298.34;5113615;28;20450;-57
2023/10/24 09:07:30;;;;;;;13.98;9.40;;;;;;;4.11;64.68;99290.78;5113441;28;20457;-58
2023/10/24 09:09:55;;;;;;;17.25;9.80;;;;;;;4.06;64.40;99287.53;5113476;28;20027;-60
2023/10/24 09:12:24;;;;;;;14.13;9.88;;;;;;;4.08;64.26;99301.53;5113539;28;20342;-63
2023/10/24 09:14:49;;;;;;;16.20;9.90;;;;;;;4.04;64.27;99310.63;5112463;28;20027;-61
2023/10/24 09:17:15;;;;;;;15.55;9.30;;;;;;;3.99;64.64;99297.69;5113367;28;20042;-61
2023/10/24 09:19:42;;;;;;;16.83;10.55;;;;;;;4.13;64.45;99312.72;5113582;28;20115;-62
2023/10/24 09:22:08;;;;;;;18.20;10.38;;;;;;;4.16;63.75;99306.38;5113118;28;20035;-62
2023/10/24 09:24:37;;;;;;;15.45;9.50;;;;;;;4.29;62.99;99309.09;5113195;28;20052;-61
2023/10/24 09:27:03;;;;;;;16.10;10.25;;;;;;;4.05;62.00;99272.59;5112454;28;20059;-59
2023/10/24 09:29:31;;;;;;;13.90;9.50;;;;;;;4.27;61.83;99322.47;5112101;28;20058;-62
2023/10/24 09:31:59;;;;;;;17.83;9.80;;;;;;;4.24;61.96;99316.50;5113098;28;20053;-61
2023/10/24 09:34:27;;;;;;;13.90;8.70;;;;;;;4.23;60.86;99317.44;5113453;28;20114;-63
2023/10/24 09:36:52;;;;;;;16.23;8.57;;;;;;;4.12;60.84;99304.84;5112296;28;20391;-59
2023/10/24 09:39:18;;;;;;;13.40;8.23;;;;;;;4.11;60.16;99309.31;5113036;28;20031;-61
2023/10/24 09:41:49;;;;;;;15.68;9.55;;;;;;;4.05;61.43;99324.75;5115005;28;20473;-60
2023/10/24 09:44:16;;;;;;;14.20;8.70;;;;;;;3.99;61.36;99318.88;5117693;28;20442;-62
2023/10/24 09:46:43;;;;;;;15.82;9.57;;;;;;;3.93;61.89;99307.81;5117317;28;20023;-62
2023/10/24 09:49:11;;;;;;;15.77;8.60;;;;;;;4.05;62.03;99319.44;5115919;28;20059;-60
2023/10/24 09:51:37;;;;;;;16.23;9.30;;;;;;;4.14;61.50;99325.03;5117460;28;20031;-61
2023/10/24 09:54:11;;;;;;;15.48;8.18;;;;;;;4.21;61.41;99322.81;5117240;28;20092;-61
2023/10/24 09:56:37;;;;;;;15.82;8.45;;;;;;;4.27;61.05;99332.19;5117106;28;20435;-61
2023/10/24 09:59:02;;;;;;;13.25;8.25;;;;;;;4.25;60.82;99329.66;5116980;28;20100;-61
2023/10/24 10:01:28;;;;;;;14.15;7.97;;;;;;;4.26;60.70;99330.50;5117356;28;20031;-62
2023/10/24 10:04:00;;;;;;;14.00;7.97;;;;;;;4.08;60.89;99290.94;5117319;28;20421;-62
2023/10/24 10:06:27;;;;;;;14.68;8.45;;;;;;;4.50;60.80;99340.50;5115929;28;20032;-63
2023/10/24 10:08:57;;;;;;;14.55;8.73;;;;;;;4.52;60.43;99338.59;5116935;28;20421;-61
2023/10/24 10:11:26;;;;;;;12.57;8.00;;;;;;;4.61;60.17;99332.72;5117089;28;20493;-60
2023/10/24 10:14:03;;;;;;;14.23;8.32;;;;;;;4.83;59.19;99353.41;5116819;28;20039;-60
2023/10/24 10:16:41;;;;;;;12.30;7.85;;;;;;;4.74;59.57;99315.06;5116710;28;20070;-60
2023/10/24 10:19:32;;;;;;;10.05;7.32;;;;;;;5.24;58.11;99349.00;5115724;28;20023;-61
2023/10/24 10:22:03;;;;;;;11.68;6.85;;;;;;;5.42;56.50;99349.56;5116749;28;20111;-61
2023/10/24 10:24:47;;;;;;;10.68;6.60;;;;;;;5.42;55.83;99354.88;5116576;28;20059;-61
2023/10/24 10:27:22;;;;;;;10.50;6.45;;;;;;;5.38;55.73;99358.69;5115350;28;20067;-61
2023/10/24 10:30:13;;;;;;;10.93;6.73;;;;;;;5.26;56.06;99378.94;5116853;28;20061;-61
2023/10/24 10:33:09;;;;;;;8.75;6.28;;;;;;;5.14;56.11;99366.50;5116518;28;20027;-60
2023/10/24 10:35:50;;;;;;;12.00;7.03;;;;;;;4.97;56.95;99380.88;5116313;28;20035;-60
2023/10/24 10:38:49;;;;;;;14.00;9.18;;;;;;;4.63;56.49;99335.28;5116186;28;20450;-63
2023/10/24 10:41:24;;;;;;;14.85;8.27;;;;;;;4.78;56.75;99386.47;5117172;28;20332;-60
2023/10/24 10:43:57;;;;;;;14.90;8.98;;;;;;;4.45;56.88;99357.56;5115994;28;20190;-60
2023/10/24 10:46:26;;;;;;;12.98;7.80;;;;;;;4.49;57.41;99397.13;5116062;28;20067;-60
2023/10/24 10:48:56;;;;;;;13.48;8.00;;;;;;;4.40;57.10;99396.75;5116040;28;20107;-59
2023/10/24 10:51:28;;;;;;;14.07;6.75;;;;;;;4.22;57.98;99395.25;5115140;28;20035;-63
2023/10/24 10:54:24;;;;;;;11.63;6.82;;;;;;;4.17;58.71;99406.09;5115211;28;20053;-61
2023/10/24 10:56:50;;;;;;;12.15;6.82;;;;;;;3.97;57.93;99397.56;5116011;28;20035;-62
2023/10/24 10:59:28;;;;;;;12.35;6.28;;;;;;;3.94;58.44;99402.22;5116166;28;20032;-61
2023/10/24 11:02:16;;;;;;;10.30;6.28;;;;;;;3.95;59.34;99395.97;5115939;28;20020;-61
2023/10/24 11:04:42;;;;;;;8.43;6.10;;;;;;;3.86;58.99;99400.00;5115557;28;20024;-63
2023/10/24 11:07:09;;;;;;;10.00;5.80;;;;;;;3.80;59.13;99401.22;5115827;27;20030;-62
2023/10/24 11:09:37;;;;;;;13.25;6.10;;;;;;;3.77;59.09;99408.53;5114423;28;20032;-61
2023/10/24 11:12:18;;;;;;;10.20;5.60;;;;;;;3.76;59.37;99405.00;5115413;28;20425;-61
2023/10/24 11:14:44;;;;;;;10.73;6.25;;;;;;;3.50;59.36;99396.81;5115692;28;20038;-61
2023/10/24 11:17:11;;;;;;;8.90;5.75;;;;;;;3.50;59.40;99402.09;5114520;28;20103;-62
2023/10/24 11:19:38;;;;;;;9.40;6.38;;;;;;;3.51;59.58;99421.50;5115324;28;20101;-60
2023/10/24 11:22:03;;;;;;;9.52;6.53;;;;;;;3.54;59.82;99429.25;5115765;28;20092;-61
2023/10/24 11:24:29;;;;;;;9.68;6.60;;;;;;;3.56;59.99;99420.25;5115018;28;20055;-61
2023/10/24 11:26:56;;;;;;;12.27;7.00;;;;;;;3.58;60.00;99428.13;5115332;27;20104;-63
2023/10/24 11:29:22;;;;;;;11.55;7.43;;;;;;;3.62;60.02;99428.78;5115534;28;20035;-61
2023/10/24 11:31:48;;;;;;;12.80;7.88;;;;;;;3.50;60.00;99441.78;5115350;28;20111;-59